This is the latest recevied weather packets stored in our database for station/object N4CRH-13. If no packets are shown the sender has not sent any weather packets the latest 10 day(s).
| Time | Temp. | Humidity | Pressure | Rain* | Wind** | Luminosity | Snow |
|---|---|---|---|---|---|---|---|
| 1777749364 | 16.11° C | 24% | 1299.1 hPa | 0 mm | - | 739 W/m² | - |
| 1777749062 | 17.78° C | 23% | 1299 hPa | 0 mm | - | 740 W/m² | - |
| 1777748759 | 16.11° C | 26% | 1299.1 hPa | 0 mm | - | 743 W/m² | - |
| 1777748456 | 16.11° C | 25% | 1299.1 hPa | 0 mm | - | 745 W/m² | - |
| 1777748151 | 15.56° C | 25% | 1299.3 hPa | 0 mm | - | 747 W/m² | - |
| 1777747849 | 16.11° C | 22% | 1299.5 hPa | 0 mm | - | 747 W/m² | - |
| 1777747544 | 15.56° C | 27% | 1299.3 hPa | 0 mm | - | 747 W/m² | - |
| 1777747240 | 16.67° C | 27% | 1299.2 hPa | 0 mm | - | 746 W/m² | - |
| 1777746937 | 15.56° C | 26% | 1299.5 hPa | 0 mm | - | 745 W/m² | - |
| 1777746632 | 15.56° C | 24% | 1299.7 hPa | 0 mm | - | 746 W/m² | - |
| 1777746328 | 15.56° C | 26% | 1299.8 hPa | 0 mm | - | 745 W/m² | - |
| 1777746024 | 16.11° C | 28% | 1299.9 hPa | 0 mm | - | 743 W/m² | - |
| 1777745722 | 14.44° C | 27% | 1299.7 hPa | 0 mm | - | 741 W/m² | - |
| 1777745421 | 15° C | 25% | 1299.8 hPa | 0 mm | - | 739 W/m² | - |
| 1777745117 | 15° C | 25% | 1299.9 hPa | 0 mm | - | 737 W/m² | - |
| 1777744814 | 13.89° C | 30% | 1299.8 hPa | 0 mm | - | 731 W/m² | - |
| 1777744210 | 15.56° C | 25% | 1300.1 hPa | 0 mm | - | 725 W/m² | - |
| 1777743907 | 15.56° C | 31% | 1300.1 hPa | 0 mm | - | 721 W/m² | - |
| 1777743301 | 13.89° C | 29% | 1300.3 hPa | 0 mm | - | 711 W/m² | - |
| 1777742392 | 14.44° C | 30% | 1300.1 hPa | 0 mm | - | 693 W/m² | - |
| 1777742088 | 12.78° C | 27% | 1300.3 hPa | 0 mm | - | 685 W/m² | - |
| 1777741785 | 12.78° C | 30% | 1300.3 hPa | 0 mm | - | 679 W/m² | - |
| 1777741482 | 12.78° C | 29% | 1300.4 hPa | 0 mm | - | 672 W/m² | - |
| 1777741177 | 13.33° C | 27% | 1300.5 hPa | 0 mm | - | 665 W/m² | - |
| 1777740875 | 13.33° C | 29% | 1300.4 hPa | 0 mm | - | 655 W/m² | - |
* Rain latest hour (hover to see other rain measurements)
** Current wind speed in m/s (hover to see current wind gust speed)